sensor_id;sensor_type;location;lat;lon;timestamp;temperature;humidity
17307;DHT22;8771;48.048;7.682;2022-07-29T00:02:28;22.40;51.50
17307;DHT22;8771;48.048;7.682;2022-07-29T00:07:32;22.30;51.70
17307;DHT22;8771;48.048;7.682;2022-07-29T00:12:40;22.30;51.80
17307;DHT22;8771;48.048;7.682;2022-07-29T00:17:43;22.20;51.80
17307;DHT22;8771;48.048;7.682;2022-07-29T00:23:05;22.10;51.90
17307;DHT22;8771;48.048;7.682;2022-07-29T00:28:08;21.80;52.10
17307;DHT22;8771;48.048;7.682;2022-07-29T00:33:17;21.70;52.30
17307;DHT22;8771;48.048;7.682;2022-07-29T00:38:39;21.60;52.40
17307;DHT22;8771;48.048;7.682;2022-07-29T00:44:06;21.50;52.40
17307;DHT22;8771;48.048;7.682;2022-07-29T00:49:08;21.40;52.50
17307;DHT22;8771;48.048;7.682;2022-07-29T00:54:25;21.30;52.60
17307;DHT22;8771;48.048;7.682;2022-07-29T00:59:29;21.30;52.60
17307;DHT22;8771;48.048;7.682;2022-07-29T01:04:51;21.30;52.60
17307;DHT22;8771;48.048;7.682;2022-07-29T01:10:14;21.30;52.60
17307;DHT22;8771;48.048;7.682;2022-07-29T01:15:18;21.30;52.70
17307;DHT22;8771;48.048;7.682;2022-07-29T01:21:06;21.20;52.60
17307;DHT22;8771;48.048;7.682;2022-07-29T01:26:27;21.10;52.70
17307;DHT22;8771;48.048;7.682;2022-07-29T01:31:51;21.10;52.80
17307;DHT22;8771;48.048;7.682;2022-07-29T01:37:15;21.10;52.90
17307;DHT22;8771;48.048;7.682;2022-07-29T01:42:23;21.00;52.90
17307;DHT22;8771;48.048;7.682;2022-07-29T01:47:56;21.00;52.90
17307;DHT22;8771;48.048;7.682;2022-07-29T01:53:06;21.00;52.90
17307;DHT22;8771;48.048;7.682;2022-07-29T01:58:14;21.00;53.00
17307;DHT22;8771;48.048;7.682;2022-07-29T02:03:41;20.90;52.90
17307;DHT22;8771;48.048;7.682;2022-07-29T02:08:49;20.90;53.00
17307;DHT22;8771;48.048;7.682;2022-07-29T02:13:54;20.70;53.10
17307;DHT22;8771;48.048;7.682;2022-07-29T02:19:01;20.60;53.40
17307;DHT22;8771;48.048;7.682;2022-07-29T02:24:25;20.50;53.40
17307;DHT22;8771;48.048;7.682;2022-07-29T02:29:43;20.50;53.50
17307;DHT22;8771;48.048;7.682;2022-07-29T02:35:09;20.50;53.40
17307;DHT22;8771;48.048;7.682;2022-07-29T02:40:33;20.40;53.40
17307;DHT22;8771;48.048;7.682;2022-07-29T02:45:39;20.40;53.50
17307;DHT22;8771;48.048;7.682;2022-07-29T02:51:06;20.50;53.60
17307;DHT22;8771;48.048;7.682;2022-07-29T02:56:32;20.50;53.50
17307;DHT22;8771;48.048;7.682;2022-07-29T03:01:57;20.50;53.50
17307;DHT22;8771;48.048;7.682;2022-07-29T03:07:22;20.50;53.50
17307;DHT22;8771;48.048;7.682;2022-07-29T03:12:46;20.50;53.50
17307;DHT22;8771;48.048;7.682;2022-07-29T03:18:12;20.50;53.50
17307;DHT22;8771;48.048;7.682;2022-07-29T03:23:20;20.50;53.50
17307;DHT22;8771;48.048;7.682;2022-07-29T03:28:48;20.40;53.50
17307;DHT22;8771;48.048;7.682;2022-07-29T03:34:10;20.40;53.60
17307;DHT22;8771;48.048;7.682;2022-07-29T03:39:24;20.30;53.70
17307;DHT22;8771;48.048;7.682;2022-07-29T03:44:27;20.20;53.80
17307;DHT22;8771;48.048;7.682;2022-07-29T03:49:36;20.10;53.90
17307;DHT22;8771;48.048;7.682;2022-07-29T03:54:43;20.00;54.10
17307;DHT22;8771;48.048;7.682;2022-07-29T04:00:02;19.90;54.20
17307;DHT22;8771;48.048;7.682;2022-07-29T04:05:12;19.80;54.30
17307;DHT22;8771;48.048;7.682;2022-07-29T04:10:22;19.80;54.40
17307;DHT22;8771;48.048;7.682;2022-07-29T04:15:40;19.80;54.40
17307;DHT22;8771;48.048;7.682;2022-07-29T04:21:04;19.80;54.40
17307;DHT22;8771;48.048;7.682;2022-07-29T04:26:33;19.80;54.30
17307;DHT22;8771;48.048;7.682;2022-07-29T04:31:55;19.80;54.20
17307;DHT22;8771;48.048;7.682;2022-07-29T04:36:57;19.90;54.20
17307;DHT22;8771;48.048;7.682;2022-07-29T04:42:20;19.90;54.20
17307;DHT22;8771;48.048;7.682;2022-07-29T04:47:24;20.00;54.20
17307;DHT22;8771;48.048;7.682;2022-07-29T04:52:46;20.10;54.20
17307;DHT22;8771;48.048;7.682;2022-07-29T04:57:53;20.10;54.20
17307;DHT22;8771;48.048;7.682;2022-07-29T05:03:15;20.10;54.20
17307;DHT22;8771;48.048;7.682;2022-07-29T05:08:38;20.10;54.20
17307;DHT22;8771;48.048;7.682;2022-07-29T05:14:01;20.20;54.20
17307;DHT22;8771;48.048;7.682;2022-07-29T05:19:03;20.20;54.20
17307;DHT22;8771;48.048;7.682;2022-07-29T05:24:25;20.30;54.20
17307;DHT22;8771;48.048;7.682;2022-07-29T05:29:36;20.40;54.00
17307;DHT22;8771;48.048;7.682;2022-07-29T05:34:59;20.60;53.90
17307;DHT22;8771;48.048;7.682;2022-07-29T05:40:22;20.80;53.80
17307;DHT22;8771;48.048;7.682;2022-07-29T05:45:45;20.90;53.70
17307;DHT22;8771;48.048;7.682;2022-07-29T05:51:03;21.00;53.70
17307;DHT22;8771;48.048;7.682;2022-07-29T05:56:25;21.00;53.60
17307;DHT22;8771;48.048;7.682;2022-07-29T06:01:49;21.10;53.60
17307;DHT22;8771;48.048;7.682;2022-07-29T06:07:10;21.20;53.60
17307;DHT22;8771;48.048;7.682;2022-07-29T06:12:14;21.20;53.60
17307;DHT22;8771;48.048;7.682;2022-07-29T06:17:24;21.30;53.60
17307;DHT22;8771;48.048;7.682;2022-07-29T06:22:27;21.50;53.60
17307;DHT22;8771;48.048;7.682;2022-07-29T06:27:49;21.80;53.20
17307;DHT22;8771;48.048;7.682;2022-07-29T06:33:07;22.20;52.90
17307;DHT22;8771;48.048;7.682;2022-07-29T06:38:09;22.60;52.60
17307;DHT22;8771;48.048;7.682;2022-07-29T06:43:33;22.70;52.50
17307;DHT22;8771;48.048;7.682;2022-07-29T06:48:59;22.90;52.50
17307;DHT22;8771;48.048;7.682;2022-07-29T06:54:21;23.20;52.30
17307;DHT22;8771;48.048;7.682;2022-07-29T06:59:38;23.50;52.00
17307;DHT22;8771;48.048;7.682;2022-07-29T07:04:45;23.70;51.80
17307;DHT22;8771;48.048;7.682;2022-07-29T07:10:09;23.90;51.90
17307;DHT22;8771;48.048;7.682;2022-07-29T07:15:26;24.10;51.80
17307;DHT22;8771;48.048;7.682;2022-07-29T07:20:49;24.30;51.60
17307;DHT22;8771;48.048;7.682;2022-07-29T07:26:11;24.50;51.40
17307;DHT22;8771;48.048;7.682;2022-07-29T07:31:33;24.70;51.30
17307;DHT22;8771;48.048;7.682;2022-07-29T07:36:56;25.00;51.20
17307;DHT22;8771;48.048;7.682;2022-07-29T07:42:14;25.10;51.00
17307;DHT22;8771;48.048;7.682;2022-07-29T07:47:34;25.40;51.00
17307;DHT22;8771;48.048;7.682;2022-07-29T07:52:58;25.70;50.80
17307;DHT22;8771;48.048;7.682;2022-07-29T07:58:20;25.90;50.70
17307;DHT22;8771;48.048;7.682;2022-07-29T08:03:41;26.20;50.60
17307;DHT22;8771;48.048;7.682;2022-07-29T08:09:05;26.40;50.50
17307;DHT22;8771;48.048;7.682;2022-07-29T08:14:28;26.70;50.40
17307;DHT22;8771;48.048;7.682;2022-07-29T08:19:37;26.80;50.30
17307;DHT22;8771;48.048;7.682;2022-07-29T08:24:41;27.00;50.30
17307;DHT22;8771;48.048;7.682;2022-07-29T08:30:12;27.20;50.20
17307;DHT22;8771;48.048;7.682;2022-07-29T08:35:15;27.30;50.20
17307;DHT22;8771;48.048;7.682;2022-07-29T08:40:21;27.50;50.30
17307;DHT22;8771;48.048;7.682;2022-07-29T08:45:36;27.50;50.10
17307;DHT22;8771;48.048;7.682;2022-07-29T08:51:02;27.70;50.20
17307;DHT22;8771;48.048;7.682;2022-07-29T08:56:26;27.80;50.20
17307;DHT22;8771;48.048;7.682;2022-07-29T09:01:37;27.80;50.10
17307;DHT22;8771;48.048;7.682;2022-07-29T09:06:43;27.90;50.10
17307;DHT22;8771;48.048;7.682;2022-07-29T09:11:50;28.10;50.10
17307;DHT22;8771;48.048;7.682;2022-07-29T09:17:14;28.10;50.00
17307;DHT22;8771;48.048;7.682;2022-07-29T09:22:37;28.10;50.00
17307;DHT22;8771;48.048;7.682;2022-07-29T09:28:05;28.20;50.20
17307;DHT22;8771;48.048;7.682;2022-07-29T09:33:07;28.30;50.10
17307;DHT22;8771;48.048;7.682;2022-07-29T09:38:29;28.30;50.10
17307;DHT22;8771;48.048;7.682;2022-07-29T09:43:40;28.40;50.00
17307;DHT22;8771;48.048;7.682;2022-07-29T09:49:08;28.50;50.00
17307;DHT22;8771;48.048;7.682;2022-07-29T09:54:23;28.60;49.90
17307;DHT22;8771;48.048;7.682;2022-07-29T09:59:32;28.80;49.90
17307;DHT22;8771;48.048;7.682;2022-07-29T10:04:49;28.90;49.80
17307;DHT22;8771;48.048;7.682;2022-07-29T10:09:58;29.00;49.60
17307;DHT22;8771;48.048;7.682;2022-07-29T10:15:23;29.20;49.50
17307;DHT22;8771;48.048;7.682;2022-07-29T10:20:45;29.20;49.50
17307;DHT22;8771;48.048;7.682;2022-07-29T10:25:49;29.30;49.50
17307;DHT22;8771;48.048;7.682;2022-07-29T10:31:19;29.40;49.50
17307;DHT22;8771;48.048;7.682;2022-07-29T10:36:56;29.50;49.50
17307;DHT22;8771;48.048;7.682;2022-07-29T10:42:19;29.60;49.70
17307;DHT22;8771;48.048;7.682;2022-07-29T10:47:44;29.60;49.40
17307;DHT22;8771;48.048;7.682;2022-07-29T10:52:53;29.70;49.40
17307;DHT22;8771;48.048;7.682;2022-07-29T10:58:12;29.80;49.30
17307;DHT22;8771;48.048;7.682;2022-07-29T11:03:43;30.00;49.30
17307;DHT22;8771;48.048;7.682;2022-07-29T11:09:17;29.90;49.20
17307;DHT22;8771;48.048;7.682;2022-07-29T11:14:56;29.90;49.30
17307;DHT22;8771;48.048;7.682;2022-07-29T11:20:33;30.00;49.20
17307;DHT22;8771;48.048;7.682;2022-07-29T11:25:35;30.10;49.20
17307;DHT22;8771;48.048;7.682;2022-07-29T11:30:58;30.20;49.20
17307;DHT22;8771;48.048;7.682;2022-07-29T11:36:09;30.20;49.20
17307;DHT22;8771;48.048;7.682;2022-07-29T11:41:31;30.10;49.20
17307;DHT22;8771;48.048;7.682;2022-07-29T11:46:58;30.00;49.30
17307;DHT22;8771;48.048;7.682;2022-07-29T11:52:16;30.00;49.50
17307;DHT22;8771;48.048;7.682;2022-07-29T11:57:20;29.90;49.50
17307;DHT22;8771;48.048;7.682;2022-07-29T12:02:43;29.80;49.50
17307;DHT22;8771;48.048;7.682;2022-07-29T12:07:49;29.90;49.50
17307;DHT22;8771;48.048;7.682;2022-07-29T12:12:55;29.90;49.40
17307;DHT22;8771;48.048;7.682;2022-07-29T12:18:19;29.90;49.40
17307;DHT22;8771;48.048;7.682;2022-07-29T12:23:52;29.90;49.40
17307;DHT22;8771;48.048;7.682;2022-07-29T12:29:15;29.80;49.50
17307;DHT22;8771;48.048;7.682;2022-07-29T12:34:38;29.70;49.50
17307;DHT22;8771;48.048;7.682;2022-07-29T12:40:02;29.70;49.50
17307;DHT22;8771;48.048;7.682;2022-07-29T12:45:28;29.70;49.50
17307;DHT22;8771;48.048;7.682;2022-07-29T12:50:57;29.80;49.50
17307;DHT22;8771;48.048;7.682;2022-07-29T12:56:05;29.80;49.30
17307;DHT22;8771;48.048;7.682;2022-07-29T13:01:11;29.90;49.30
17307;DHT22;8771;48.048;7.682;2022-07-29T13:06:39;29.90;49.30
17307;DHT22;8771;48.048;7.682;2022-07-29T13:11:44;29.80;49.40
17307;DHT22;8771;48.048;7.682;2022-07-29T13:17:08;29.80;49.30
17307;DHT22;8771;48.048;7.682;2022-07-29T13:22:30;29.90;49.30
17307;DHT22;8771;48.048;7.682;2022-07-29T13:27:38;30.00;49.30
17307;DHT22;8771;48.048;7.682;2022-07-29T13:32:55;30.00;49.20
17307;DHT22;8771;48.048;7.682;2022-07-29T13:38:13;30.00;49.00
17307;DHT22;8771;48.048;7.682;2022-07-29T13:43:16;30.10;49.00
17307;DHT22;8771;48.048;7.682;2022-07-29T13:48:18;30.20;48.90
17307;DHT22;8771;48.048;7.682;2022-07-29T13:53:36;30.20;48.80
17307;DHT22;8771;48.048;7.682;2022-07-29T13:58:42;30.20;48.90
17307;DHT22;8771;48.048;7.682;2022-07-29T14:03:45;30.20;48.90
17307;DHT22;8771;48.048;7.682;2022-07-29T14:08:47;30.20;48.90
17307;DHT22;8771;48.048;7.682;2022-07-29T14:13:51;30.20;48.80
17307;DHT22;8771;48.048;7.682;2022-07-29T14:19:14;30.20;48.80
17307;DHT22;8771;48.048;7.682;2022-07-29T14:24:23;30.30;48.80
17307;DHT22;8771;48.048;7.682;2022-07-29T14:29:27;30.30;48.80
17307;DHT22;8771;48.048;7.682;2022-07-29T14:34:49;30.30;48.80
17307;DHT22;8771;48.048;7.682;2022-07-29T14:40:07;30.30;48.80
17307;DHT22;8771;48.048;7.682;2022-07-29T14:45:14;30.30;48.80
17307;DHT22;8771;48.048;7.682;2022-07-29T14:50:17;30.20;48.70
17307;DHT22;8771;48.048;7.682;2022-07-29T14:55:40;30.30;48.70
17307;DHT22;8771;48.048;7.682;2022-07-29T15:01:03;30.30;48.60
17307;DHT22;8771;48.048;7.682;2022-07-29T15:06:09;30.40;49.20
17307;DHT22;8771;48.048;7.682;2022-07-29T15:11:31;30.30;48.50
17307;DHT22;8771;48.048;7.682;2022-07-29T15:16:38;30.30;48.60
17307;DHT22;8771;48.048;7.682;2022-07-29T15:21:42;30.20;48.60
17307;DHT22;8771;48.048;7.682;2022-07-29T15:26:46;30.20;48.50
17307;DHT22;8771;48.048;7.682;2022-07-29T15:32:09;30.20;48.60
17307;DHT22;8771;48.048;7.682;2022-07-29T15:37:32;30.20;48.60
17307;DHT22;8771;48.048;7.682;2022-07-29T15:42:55;30.20;48.50
17307;DHT22;8771;48.048;7.682;2022-07-29T15:48:00;30.30;48.40
17307;DHT22;8771;48.048;7.682;2022-07-29T15:53:05;30.30;48.30
17307;DHT22;8771;48.048;7.682;2022-07-29T15:58:28;30.30;48.30
17307;DHT22;8771;48.048;7.682;2022-07-29T16:03:47;30.20;48.30
17307;DHT22;8771;48.048;7.682;2022-07-29T16:08:56;30.40;48.20
17307;DHT22;8771;48.048;7.682;2022-07-29T16:14:00;30.50;48.00
17307;DHT22;8771;48.048;7.682;2022-07-29T16:19:23;30.50;47.90
17307;DHT22;8771;48.048;7.682;2022-07-29T16:24:32;30.60;47.80
17307;DHT22;8771;48.048;7.682;2022-07-29T16:29:54;30.60;48.40
17307;DHT22;8771;48.048;7.682;2022-07-29T16:34:57;30.60;47.70
17307;DHT22;8771;48.048;7.682;2022-07-29T16:40:02;30.60;47.70
17307;DHT22;8771;48.048;7.682;2022-07-29T16:45:06;30.60;47.70
17307;DHT22;8771;48.048;7.682;2022-07-29T16:50:30;30.50;47.70
17307;DHT22;8771;48.048;7.682;2022-07-29T16:55:52;30.40;47.80
17307;DHT22;8771;48.048;7.682;2022-07-29T17:00:58;30.30;47.80
17307;DHT22;8771;48.048;7.682;2022-07-29T17:06:21;30.20;47.80
17307;DHT22;8771;48.048;7.682;2022-07-29T17:11:43;30.10;47.80
17307;DHT22;8771;48.048;7.682;2022-07-29T17:16:48;30.10;47.80
17307;DHT22;8771;48.048;7.682;2022-07-29T17:22:12;30.00;47.90
17307;DHT22;8771;48.048;7.682;2022-07-29T17:27:14;29.90;47.90
17307;DHT22;8771;48.048;7.682;2022-07-29T17:32:38;29.70;47.90
17307;DHT22;8771;48.048;7.682;2022-07-29T17:37:41;29.60;47.90
17307;DHT22;8771;48.048;7.682;2022-07-29T17:42:44;29.50;48.00
17307;DHT22;8771;48.048;7.682;2022-07-29T17:47:46;29.30;48.10
17307;DHT22;8771;48.048;7.682;2022-07-29T17:53:10;29.20;48.20
17307;DHT22;8771;48.048;7.682;2022-07-29T17:58:21;29.00;48.20
17307;DHT22;8771;48.048;7.682;2022-07-29T18:03:43;28.80;48.30
17307;DHT22;8771;48.048;7.682;2022-07-29T18:09:06;28.70;48.40
17307;DHT22;8771;48.048;7.682;2022-07-29T18:14:28;28.50;48.50
17307;DHT22;8771;48.048;7.682;2022-07-29T18:19:31;28.30;48.50
17307;DHT22;8771;48.048;7.682;2022-07-29T18:24:51;28.20;48.70
17307;DHT22;8771;48.048;7.682;2022-07-29T18:30:09;28.00;48.70
17307;DHT22;8771;48.048;7.682;2022-07-29T18:35:14;27.90;48.70
17307;DHT22;8771;48.048;7.682;2022-07-29T18:40:17;27.70;48.80
17307;DHT22;8771;48.048;7.682;2022-07-29T18:45:40;27.50;48.80
17307;DHT22;8771;48.048;7.682;2022-07-29T18:50:51;27.30;48.90
17307;DHT22;8771;48.048;7.682;2022-07-29T18:56:15;27.20;49.00
17307;DHT22;8771;48.048;7.682;2022-07-29T19:01:24;27.00;49.10
17307;DHT22;8771;48.048;7.682;2022-07-29T19:06:46;26.80;49.10
17307;DHT22;8771;48.048;7.682;2022-07-29T19:11:49;26.60;49.20
17307;DHT22;8771;48.048;7.682;2022-07-29T19:16:51;26.40;49.30
17307;DHT22;8771;48.048;7.682;2022-07-29T19:22:13;26.30;49.40
17307;DHT22;8771;48.048;7.682;2022-07-29T19:27:37;26.20;49.40
17307;DHT22;8771;48.048;7.682;2022-07-29T19:32:59;26.00;49.50
17307;DHT22;8771;48.048;7.682;2022-07-29T19:38:21;25.80;49.40
17307;DHT22;8771;48.048;7.682;2022-07-29T19:43:39;25.70;49.60
17307;DHT22;8771;48.048;7.682;2022-07-29T19:48:56;25.50;49.60
17307;DHT22;8771;48.048;7.682;2022-07-29T19:53:58;25.40;49.60
17307;DHT22;8771;48.048;7.682;2022-07-29T19:59:17;25.30;50.30
17307;DHT22;8771;48.048;7.682;2022-07-29T20:04:34;25.20;49.80
17307;DHT22;8771;48.048;7.682;2022-07-29T20:09:37;25.00;49.80
17307;DHT22;8771;48.048;7.682;2022-07-29T20:14:42;24.90;49.90
17307;DHT22;8771;48.048;7.682;2022-07-29T20:19:46;24.80;50.00
17307;DHT22;8771;48.048;7.682;2022-07-29T20:25:03;24.60;50.00
17307;DHT22;8771;48.048;7.682;2022-07-29T20:30:27;24.50;50.10
17307;DHT22;8771;48.048;7.682;2022-07-29T20:35:48;24.30;50.10
17307;DHT22;8771;48.048;7.682;2022-07-29T20:41:06;24.20;50.20
17307;DHT22;8771;48.048;7.682;2022-07-29T20:46:10;24.00;50.20
17307;DHT22;8771;48.048;7.682;2022-07-29T20:51:27;24.00;50.30
17307;DHT22;8771;48.048;7.682;2022-07-29T20:56:32;23.80;50.40
17307;DHT22;8771;48.048;7.682;2022-07-29T21:01:35;23.70;50.40
17307;DHT22;8771;48.048;7.682;2022-07-29T21:06:57;23.60;50.50
17307;DHT22;8771;48.048;7.682;2022-07-29T21:12:03;23.50;50.60
17307;DHT22;8771;48.048;7.682;2022-07-29T21:17:06;23.30;50.60
17307;DHT22;8771;48.048;7.682;2022-07-29T21:22:23;23.20;50.70
17307;DHT22;8771;48.048;7.682;2022-07-29T21:27:45;23.10;50.80
17307;DHT22;8771;48.048;7.682;2022-07-29T21:33:13;23.00;50.80
17307;DHT22;8771;48.048;7.682;2022-07-29T21:38:17;22.90;50.80
17307;DHT22;8771;48.048;7.682;2022-07-29T21:43:24;22.80;50.80
17307;DHT22;8771;48.048;7.682;2022-07-29T21:48:44;22.80;50.80
17307;DHT22;8771;48.048;7.682;2022-07-29T21:54:06;22.70;50.80
17307;DHT22;8771;48.048;7.682;2022-07-29T21:59:11;22.70;50.80
17307;DHT22;8771;48.048;7.682;2022-07-29T22:04:16;22.70;50.80
17307;DHT22;8771;48.048;7.682;2022-07-29T22:09:38;22.70;50.70
17307;DHT22;8771;48.048;7.682;2022-07-29T22:14:56;22.70;50.70
17307;DHT22;8771;48.048;7.682;2022-07-29T22:20:20;22.60;50.60
17307;DHT22;8771;48.048;7.682;2022-07-29T22:25:42;22.60;50.70
17307;DHT22;8771;48.048;7.682;2022-07-29T22:30:44;22.50;50.70
17307;DHT22;8771;48.048;7.682;2022-07-29T22:36:07;22.50;51.40
17307;DHT22;8771;48.048;7.682;2022-07-29T22:41:13;22.40;50.80
17307;DHT22;8771;48.048;7.682;2022-07-29T22:46:18;22.30;50.80
17307;DHT22;8771;48.048;7.682;2022-07-29T22:51:22;22.20;50.90
17307;DHT22;8771;48.048;7.682;2022-07-29T22:56:43;22.20;51.00
17307;DHT22;8771;48.048;7.682;2022-07-29T23:01:48;22.10;50.90
17307;DHT22;8771;48.048;7.682;2022-07-29T23:07:12;22.10;51.00
17307;DHT22;8771;48.048;7.682;2022-07-29T23:12:34;22.00;51.00
17307;DHT22;8771;48.048;7.682;2022-07-29T23:17:51;21.90;51.10
17307;DHT22;8771;48.048;7.682;2022-07-29T23:23:14;21.80;51.20
17307;DHT22;8771;48.048;7.682;2022-07-29T23:28:36;21.70;51.30
17307;DHT22;8771;48.048;7.682;2022-07-29T23:33:45;21.60;51.30
17307;DHT22;8771;48.048;7.682;2022-07-29T23:38:50;21.50;51.40
17307;DHT22;8771;48.048;7.682;2022-07-29T23:44:07;21.20;51.60
17307;DHT22;8771;48.048;7.682;2022-07-29T23:49:29;21.00;51.80
17307;DHT22;8771;48.048;7.682;2022-07-29T23:54:52;20.90;51.90
